sensor_id;sensor_type;location;lat;lon;timestamp;pressure;altitude;pressure_sealevel;temperature;humidity
24746;BME280;12845;52.042;6.838;2023-04-27T00:01:53;-18134.94;;;3.98;100.00
24746;BME280;12845;52.042;6.838;2023-04-27T00:04:18;-18134.81;;;3.97;100.00
24746;BME280;12845;52.042;6.838;2023-04-27T00:06:44;-18134.25;;;3.95;100.00
24746;BME280;12845;52.042;6.838;2023-04-27T00:09:10;-18134.66;;;3.97;100.00
24746;BME280;12845;52.042;6.838;2023-04-27T00:11:36;-18133.00;;;3.91;100.00
24746;BME280;12845;52.042;6.838;2023-04-27T00:14:01;-18133.56;;;3.93;100.00
24746;BME280;12845;52.042;6.838;2023-04-27T00:16:27;-18131.63;;;3.86;100.00
24746;BME280;12845;52.042;6.838;2023-04-27T00:18:52;-18131.34;;;3.84;100.00
24746;BME280;12845;52.042;6.838;2023-04-27T00:21:18;-18130.53;;;3.81;100.00
24746;BME280;12845;52.042;6.838;2023-04-27T00:23:43;-18131.34;;;3.84;100.00
24746;BME280;12845;52.042;6.838;2023-04-27T00:26:09;-18131.34;;;3.84;100.00
24746;BME280;12845;52.042;6.838;2023-04-27T00:28:34;-18129.97;;;3.79;100.00
24746;BME280;12845;52.042;6.838;2023-04-27T00:30:59;-18126.09;;;3.65;100.00
24746;BME280;12845;52.042;6.838;2023-04-27T00:33:27;-18125.56;;;3.63;100.00
24746;BME280;12845;52.042;6.838;2023-04-27T00:35:53;-18122.09;;;3.50;100.00
24746;BME280;12845;52.042;6.838;2023-04-27T00:38:18;-18120.84;;;3.46;100.00
24746;BME280;12845;52.042;6.838;2023-04-27T00:40:44;-18120.44;;;3.44;100.00
24746;BME280;12845;52.042;6.838;2023-04-27T00:43:09;-18118.09;;;3.35;100.00
24746;BME280;12845;52.042;6.838;2023-04-27T00:45:40;-18117.25;;;3.32;100.00
24746;BME280;12845;52.042;6.838;2023-04-27T00:48:06;-18117.81;;;3.34;100.00
24746;BME280;12845;52.042;6.838;2023-04-27T00:50:32;-18115.47;;;3.26;100.00
24746;BME280;12845;52.042;6.838;2023-04-27T00:52:57;-18115.19;;;3.25;100.00
24746;BME280;12845;52.042;6.838;2023-04-27T00:55:23;-18115.31;;;3.25;100.00
24746;BME280;12845;52.042;6.838;2023-04-27T00:57:48;-18112.44;;;3.14;100.00
24746;BME280;12845;52.042;6.838;2023-04-27T01:00:14;-18109.38;;;3.03;100.00
24746;BME280;12845;52.042;6.838;2023-04-27T01:02:40;-18109.94;;;3.05;100.00
24746;BME280;12845;52.042;6.838;2023-04-27T01:05:06;-18105.38;;;2.88;100.00
24746;BME280;12845;52.042;6.838;2023-04-27T01:07:36;-18100.25;;;2.69;100.00
24746;BME280;12845;52.042;6.838;2023-04-27T01:10:02;-18097.50;;;2.59;100.00
24746;BME280;12845;52.042;6.838;2023-04-27T01:12:27;-18097.34;;;2.59;100.00
24746;BME280;12845;52.042;6.838;2023-04-27T01:14:52;-18097.63;;;2.60;100.00
24746;BME280;12845;52.042;6.838;2023-04-27T01:17:18;-18098.19;;;2.62;100.00
24746;BME280;12845;52.042;6.838;2023-04-27T01:19:43;-18094.88;;;2.49;100.00
24746;BME280;12845;52.042;6.838;2023-04-27T01:22:09;-18094.72;;;2.49;100.00
24746;BME280;12845;52.042;6.838;2023-04-27T01:24:34;-18092.38;;;2.40;100.00
24746;BME280;12845;52.042;6.838;2023-04-27T01:27:00;-18092.50;;;2.41;100.00
24746;BME280;12845;52.042;6.838;2023-04-27T01:29:26;-18091.53;;;2.37;100.00
24746;BME280;12845;52.042;6.838;2023-04-27T01:31:52;-18088.50;;;2.26;100.00
24746;BME280;12845;52.042;6.838;2023-04-27T01:34:17;-18089.59;;;2.30;100.00
24746;BME280;12845;52.042;6.838;2023-04-27T01:36:42;-18087.53;;;2.22;100.00
24746;BME280;12845;52.042;6.838;2023-04-27T01:39:08;-18085.19;;;2.14;100.00
24746;BME280;12845;52.042;6.838;2023-04-27T01:41:37;-18082.84;;;2.05;100.00
24746;BME280;12845;52.042;6.838;2023-04-27T01:44:02;-18084.91;;;2.13;100.00
24746;BME280;12845;52.042;6.838;2023-04-27T01:46:27;-18080.47;;;1.96;100.00
24746;BME280;12845;52.042;6.838;2023-04-27T01:48:53;-18079.38;;;1.92;100.00
24746;BME280;12845;52.042;6.838;2023-04-27T01:51:18;-18077.00;;;1.84;100.00
24746;BME280;12845;52.042;6.838;2023-04-27T01:53:44;-18074.81;;;1.75;100.00
24746;BME280;12845;52.042;6.838;2023-04-27T01:56:10;-18074.53;;;1.74;100.00
24746;BME280;12845;52.042;6.838;2023-04-27T01:58:35;-18074.81;;;1.75;100.00
24746;BME280;12845;52.042;6.838;2023-04-27T02:01:01;-18073.84;;;1.72;100.00
24746;BME280;12845;52.042;6.838;2023-04-27T02:03:26;-18074.81;;;1.75;100.00
24746;BME280;12845;52.042;6.838;2023-04-27T02:05:51;-18072.31;;;1.66;100.00
24746;BME280;12845;52.042;6.838;2023-04-27T02:08:17;-18071.75;;;1.64;100.00
24746;BME280;12845;52.042;6.838;2023-04-27T02:10:42;-18070.25;;;1.58;100.00
24746;BME280;12845;52.042;6.838;2023-04-27T02:13:07;-18069.97;;;1.57;100.00
24746;BME280;12845;52.042;6.838;2023-04-27T02:15:34;-18066.91;;;1.46;100.00
24746;BME280;12845;52.042;6.838;2023-04-27T02:17:59;-18066.78;;;1.46;100.00
24746;BME280;12845;52.042;6.838;2023-04-27T02:20:25;-18068.16;;;1.51;100.00
24746;BME280;12845;52.042;6.838;2023-04-27T02:22:50;-18064.56;;;1.38;100.00
24746;BME280;12845;52.042;6.838;2023-04-27T02:25:17;-18062.34;;;1.29;100.00
24746;BME280;12845;52.042;6.838;2023-04-27T02:27:43;-18063.31;;;1.33;100.00
24746;BME280;12845;52.042;6.838;2023-04-27T02:30:10;-18063.72;;;1.34;100.00
24746;BME280;12845;52.042;6.838;2023-04-27T02:32:38;-18062.50;;;1.30;100.00
24746;BME280;12845;52.042;6.838;2023-04-27T02:35:04;-18062.06;;;1.28;100.00
24746;BME280;12845;52.042;6.838;2023-04-27T02:37:29;-18060.81;;;1.24;100.00
24746;BME280;12845;52.042;6.838;2023-04-27T02:39:55;-18060.69;;;1.23;100.00
24746;BME280;12845;52.042;6.838;2023-04-27T02:42:20;-18058.88;;;1.17;100.00
24746;BME280;12845;52.042;6.838;2023-04-27T02:44:49;-18059.16;;;1.18;100.00
24746;BME280;12845;52.042;6.838;2023-04-27T02:47:16;-18059.03;;;1.17;100.00
24746;BME280;12845;52.042;6.838;2023-04-27T02:49:41;-18060.00;;;1.21;100.00
24746;BME280;12845;52.042;6.838;2023-04-27T02:52:07;-18058.06;;;1.13;100.00
24746;BME280;12845;52.042;6.838;2023-04-27T02:54:32;-18056.81;;;1.09;100.00
24746;BME280;12845;52.042;6.838;2023-04-27T02:56:58;-18056.94;;;1.09;100.00
24746;BME280;12845;52.042;6.838;2023-04-27T02:59:24;-18057.22;;;1.10;100.00
24746;BME280;12845;52.042;6.838;2023-04-27T03:01:49;-18055.44;;;1.04;100.00
24746;BME280;12845;52.042;6.838;2023-04-27T03:04:14;-18052.78;;;0.94;100.00
24746;BME280;12845;52.042;6.838;2023-04-27T03:06:40;-18055.28;;;1.03;100.00
24746;BME280;12845;52.042;6.838;2023-04-27T03:09:06;-18053.63;;;0.97;100.00
24746;BME280;12845;52.042;6.838;2023-04-27T03:11:32;-18053.63;;;0.97;100.00
24746;BME280;12845;52.042;6.838;2023-04-27T03:13:57;-18052.78;;;0.94;100.00
24746;BME280;12845;52.042;6.838;2023-04-27T03:16:22;-18052.78;;;0.94;100.00
24746;BME280;12845;52.042;6.838;2023-04-27T03:18:48;-18052.25;;;0.92;100.00
24746;BME280;12845;52.042;6.838;2023-04-27T03:21:13;-18052.53;;;0.93;100.00
24746;BME280;12845;52.042;6.838;2023-04-27T03:23:40;-18051.41;;;0.89;100.00
24746;BME280;12845;52.042;6.838;2023-04-27T03:26:10;-18051.69;;;0.90;100.00
24746;BME280;12845;52.042;6.838;2023-04-27T03:28:36;-18050.84;;;0.87;100.00
24746;BME280;12845;52.042;6.838;2023-04-27T03:31:06;-18049.75;;;0.83;100.00
24746;BME280;12845;52.042;6.838;2023-04-27T03:33:32;-18051.28;;;0.88;100.00
24746;BME280;12845;52.042;6.838;2023-04-27T03:35:58;-18050.44;;;0.85;100.00
24746;BME280;12845;52.042;6.838;2023-04-27T03:38:24;-18051.13;;;0.88;100.00
24746;BME280;12845;52.042;6.838;2023-04-27T03:40:50;-18050.16;;;0.84;100.00
24746;BME280;12845;52.042;6.838;2023-04-27T03:43:15;-18050.44;;;0.85;100.00
24746;BME280;12845;52.042;6.838;2023-04-27T03:45:43;-18049.75;;;0.83;100.00
24746;BME280;12845;52.042;6.838;2023-04-27T03:48:09;-18049.75;;;0.83;100.00
24746;BME280;12845;52.042;6.838;2023-04-27T03:50:34;-18048.91;;;0.80;100.00
24746;BME280;12845;52.042;6.838;2023-04-27T03:53:00;-18048.09;;;0.77;100.00
24746;BME280;12845;52.042;6.838;2023-04-27T03:55:25;-18048.91;;;0.80;100.00
24746;BME280;12845;52.042;6.838;2023-04-27T03:57:51;-18048.22;;;0.77;100.00
24746;BME280;12845;52.042;6.838;2023-04-27T04:00:17;-18048.38;;;0.78;100.00
24746;BME280;12845;52.042;6.838;2023-04-27T04:02:43;-18048.09;;;0.77;100.00
24746;BME280;12845;52.042;6.838;2023-04-27T04:05:09;-18045.47;;;0.67;100.00
24746;BME280;12845;52.042;6.838;2023-04-27T04:07:34;-18047.25;;;0.74;100.00
24746;BME280;12845;52.042;6.838;2023-04-27T04:10:00;-18049.59;;;0.82;100.00
24746;BME280;12845;52.042;6.838;2023-04-27T04:12:25;-18048.09;;;0.77;100.00
24746;BME280;12845;52.042;6.838;2023-04-27T04:14:50;-18045.31;;;0.66;100.00
24746;BME280;12845;52.042;6.838;2023-04-27T04:17:16;-18043.50;;;0.60;100.00
24746;BME280;12845;52.042;6.838;2023-04-27T04:19:41;-18044.22;;;0.62;100.00
24746;BME280;12845;52.042;6.838;2023-04-27T04:22:07;-18044.91;;;0.65;100.00
24746;BME280;12845;52.042;6.838;2023-04-27T04:24:32;-18042.81;;;0.57;100.00
24746;BME280;12845;52.042;6.838;2023-04-27T04:26:57;-18044.06;;;0.62;100.00
24746;BME280;12845;52.042;6.838;2023-04-27T04:29:23;-18043.66;;;0.60;100.00
24746;BME280;12845;52.042;6.838;2023-04-27T04:31:49;-18043.66;;;0.60;100.00
24746;BME280;12845;52.042;6.838;2023-04-27T04:34:15;-18042.00;;;0.54;100.00
24746;BME280;12845;52.042;6.838;2023-04-27T04:36:40;-18041.16;;;0.51;100.00
24746;BME280;12845;52.042;6.838;2023-04-27T04:39:05;-18042.28;;;0.55;100.00
24746;BME280;12845;52.042;6.838;2023-04-27T04:41:31;-18044.06;;;0.62;100.00
24746;BME280;12845;52.042;6.838;2023-04-27T04:43:57;-18042.41;;;0.56;100.00
24746;BME280;12845;52.042;6.838;2023-04-27T04:46:23;-18043.38;;;0.59;100.00
24746;BME280;12845;52.042;6.838;2023-04-27T04:48:50;-18041.59;;;0.53;100.00
24746;BME280;12845;52.042;6.838;2023-04-27T04:51:16;-18042.00;;;0.54;100.00
24746;BME280;12845;52.042;6.838;2023-04-27T04:53:41;-18040.88;;;0.50;100.00
24746;BME280;12845;52.042;6.838;2023-04-27T04:56:08;-18044.50;;;0.63;100.00
24746;BME280;12845;52.042;6.838;2023-04-27T04:58:33;-18047.41;;;0.74;100.00
24746;BME280;12845;52.042;6.838;2023-04-27T05:00:59;-18051.69;;;0.90;100.00
24746;BME280;12845;52.042;6.838;2023-04-27T05:03:24;-18052.78;;;0.94;100.00
24746;BME280;12845;52.042;6.838;2023-04-27T05:05:50;-18053.22;;;0.96;100.00
24746;BME280;12845;52.042;6.838;2023-04-27T05:08:15;-18054.59;;;1.01;100.00
24746;BME280;12845;52.042;6.838;2023-04-27T05:10:41;-18056.25;;;1.07;100.00
24746;BME280;12845;52.042;6.838;2023-04-27T05:13:06;-18056.41;;;1.07;100.00
24746;BME280;12845;52.042;6.838;2023-04-27T05:15:32;-18055.00;;;1.02;100.00
24746;BME280;12845;52.042;6.838;2023-04-27T05:17:57;-18055.84;;;1.05;100.00
24746;BME280;12845;52.042;6.838;2023-04-27T05:20:22;-18058.47;;;1.15;100.00
24746;BME280;12845;52.042;6.838;2023-04-27T05:22:48;-18059.44;;;1.19;100.00
24746;BME280;12845;52.042;6.838;2023-04-27T05:25:13;-18061.78;;;1.27;100.00
24746;BME280;12845;52.042;6.838;2023-04-27T05:27:38;-18063.88;;;1.35;100.00
24746;BME280;12845;52.042;6.838;2023-04-27T05:30:05;-18068.84;;;1.53;100.00
24746;BME280;12845;52.042;6.838;2023-04-27T05:32:31;-18069.97;;;1.57;100.00
24746;BME280;12845;52.042;6.838;2023-04-27T05:34:57;-18074.25;;;1.73;100.00
24746;BME280;12845;52.042;6.838;2023-04-27T05:37:23;-18074.38;;;1.74;100.00
24746;BME280;12845;52.042;6.838;2023-04-27T05:39:48;-18078.13;;;1.88;100.00
24746;BME280;12845;52.042;6.838;2023-04-27T05:42:13;-18081.44;;;2.00;100.00
24746;BME280;12845;52.042;6.838;2023-04-27T05:44:39;-18085.47;;;2.15;100.00
24746;BME280;12845;52.042;6.838;2023-04-27T05:47:04;-18087.81;;;2.23;100.00
24746;BME280;12845;52.042;6.838;2023-04-27T05:49:30;-18092.66;;;2.41;100.00
24746;BME280;12845;52.042;6.838;2023-04-27T05:51:55;-18095.84;;;2.53;100.00
24746;BME280;12845;52.042;6.838;2023-04-27T05:54:23;-18100.13;;;2.69;100.00
24746;BME280;12845;52.042;6.838;2023-04-27T05:56:48;-18105.50;;;2.89;100.00
24746;BME280;12845;52.042;6.838;2023-04-27T05:59:14;-18109.09;;;3.02;100.00
24746;BME280;12845;52.042;6.838;2023-04-27T06:01:39;-18110.78;;;3.08;100.00
24746;BME280;12845;52.042;6.838;2023-04-27T06:04:05;-18114.78;;;3.23;100.00
24746;BME280;12845;52.042;6.838;2023-04-27T06:06:31;-18117.53;;;3.33;100.00
24746;BME280;12845;52.042;6.838;2023-04-27T06:08:57;-18127.50;;;3.70;100.00
24746;BME280;12845;52.042;6.838;2023-04-27T06:11:22;-18129.28;;;3.77;100.00
24746;BME280;12845;52.042;6.838;2023-04-27T06:13:48;-18130.13;;;3.80;100.00
24746;BME280;12845;52.042;6.838;2023-04-27T06:16:13;-18131.50;;;3.85;100.00
24746;BME280;12845;52.042;6.838;2023-04-27T06:18:39;-18134.94;;;3.98;100.00
24746;BME280;12845;52.042;6.838;2023-04-27T06:21:04;-18142.28;;;4.25;100.00
24746;BME280;12845;52.042;6.838;2023-04-27T06:23:31;-18144.91;;;4.35;100.00
24746;BME280;12845;52.042;6.838;2023-04-27T06:25:56;-18150.13;;;4.54;100.00
24746;BME280;12845;52.042;6.838;2023-04-27T06:28:23;-18156.22;;;4.77;100.00
24746;BME280;12845;52.042;6.838;2023-04-27T06:30:48;-18161.03;;;4.94;100.00
24746;BME280;12845;52.042;6.838;2023-04-27T06:33:13;-18164.78;;;5.08;100.00
24746;BME280;12845;52.042;6.838;2023-04-27T06:35:39;-18169.47;;;5.26;100.00
24746;BME280;12845;52.042;6.838;2023-04-27T06:38:04;-18173.63;;;5.41;100.00
24746;BME280;12845;52.042;6.838;2023-04-27T06:40:29;-18179.13;;;5.61;100.00
24746;BME280;12845;52.042;6.838;2023-04-27T06:42:54;-18181.88;;;5.72;100.00
24746;BME280;12845;52.042;6.838;2023-04-27T06:45:20;-18185.19;;;5.84;100.00
24746;BME280;12845;52.042;6.838;2023-04-27T06:47:45;-18186.72;;;5.89;100.00
24746;BME280;12845;52.042;6.838;2023-04-27T06:50:11;-18191.00;;;6.05;100.00
24746;BME280;12845;52.042;6.838;2023-04-27T06:52:36;-18196.78;;;6.27;100.00
24746;BME280;12845;52.042;6.838;2023-04-27T06:55:01;-18198.84;;;6.35;100.00
24746;BME280;12845;52.042;6.838;2023-04-27T06:57:27;-18205.63;;;6.60;100.00
24746;BME280;12845;52.042;6.838;2023-04-27T06:59:52;-18206.31;;;6.62;100.00
24746;BME280;12845;52.042;6.838;2023-04-27T07:02:17;-18206.72;;;6.64;100.00
24746;BME280;12845;52.042;6.838;2023-04-27T07:04:43;-18211.69;;;6.82;100.00
24746;BME280;12845;52.042;6.838;2023-04-27T07:07:09;-18212.38;;;6.85;100.00
24746;BME280;12845;52.042;6.838;2023-04-27T07:09:34;-18212.38;;;6.85;100.00
24746;BME280;12845;52.042;6.838;2023-04-27T07:12:00;-18212.50;;;6.85;100.00
24746;BME280;12845;52.042;6.838;2023-04-27T07:14:25;-18214.44;;;6.92;100.00
24746;BME280;12845;52.042;6.838;2023-04-27T07:16:51;-18215.41;;;6.96;100.00
24746;BME280;12845;52.042;6.838;2023-04-27T07:19:16;-18220.22;;;7.14;100.00
24746;BME280;12845;52.042;6.838;2023-04-27T07:21:41;-18221.19;;;7.17;100.00
24746;BME280;12845;52.042;6.838;2023-04-27T07:24:07;-18224.91;;;7.31;100.00
24746;BME280;12845;52.042;6.838;2023-04-27T07:26:32;-18226.00;;;7.35;100.00
24746;BME280;12845;52.042;6.838;2023-04-27T07:28:57;-18227.13;;;7.39;100.00
24746;BME280;12845;52.042;6.838;2023-04-27T07:31:23;-18227.38;;;7.40;100.00
24746;BME280;12845;52.042;6.838;2023-04-27T07:33:48;-18229.31;;;7.47;100.00
24746;BME280;12845;52.042;6.838;2023-04-27T07:36:13;-18229.19;;;7.47;100.00
24746;BME280;12845;52.042;6.838;2023-04-27T07:38:39;-18233.59;;;7.63;100.00
24746;BME280;12845;52.042;6.838;2023-04-27T07:41:04;-18239.66;;;7.86;100.00
24746;BME280;12845;52.042;6.838;2023-04-27T07:43:30;-18238.00;;;7.80;100.00
24746;BME280;12845;52.042;6.838;2023-04-27T07:45:56;-18240.88;;;7.90;100.00
24746;BME280;12845;52.042;6.838;2023-04-27T07:48:22;-18242.25;;;7.96;100.00
24746;BME280;12845;52.042;6.838;2023-04-27T07:50:48;-18244.88;;;8.05;100.00
24746;BME280;12845;52.042;6.838;2023-04-27T07:53:13;-18245.03;;;8.06;100.00
24746;BME280;12845;52.042;6.838;2023-04-27T07:55:38;-18245.69;;;8.08;100.00
24746;BME280;12845;52.042;6.838;2023-04-27T07:58:05;-18246.38;;;8.11;100.00
24746;BME280;12845;52.042;6.838;2023-04-27T08:00:30;-18250.38;;;8.26;100.00
24746;BME280;12845;52.042;6.838;2023-04-27T08:02:56;-18256.88;;;8.50;100.00
24746;BME280;12845;52.042;6.838;2023-04-27T08:05:21;-18257.41;;;8.52;100.00
24746;BME280;12845;52.042;6.838;2023-04-27T08:07:47;-18259.63;;;8.60;100.00
24746;BME280;12845;52.042;6.838;2023-04-27T08:10:13;-18265.41;;;8.81;100.00
24746;BME280;12845;52.042;6.838;2023-04-27T08:12:39;-18268.56;;;8.93;100.00
24746;BME280;12845;52.042;6.838;2023-04-27T08:15:05;-18273.09;;;9.10;100.00
24746;BME280;12845;52.042;6.838;2023-04-27T08:17:31;-18275.31;;;9.18;100.00
24746;BME280;12845;52.042;6.838;2023-04-27T08:19:56;-18276.41;;;9.22;100.00
24746;BME280;12845;52.042;6.838;2023-04-27T08:22:22;-18276.81;;;9.24;100.00
24746;BME280;12845;52.042;6.838;2023-04-27T08:24:47;-18275.56;;;9.19;100.00
24746;BME280;12845;52.042;6.838;2023-04-27T08:27:12;-18276.66;;;9.23;100.00
24746;BME280;12845;52.042;6.838;2023-04-27T08:29:44;-18278.88;;;9.32;100.00
24746;BME280;12845;52.042;6.838;2023-04-27T08:32:09;-18283.69;;;9.49;100.00
24746;BME280;12845;52.042;6.838;2023-04-27T08:34:35;-18287.25;;;9.63;100.00
24746;BME280;12845;52.042;6.838;2023-04-27T08:37:00;-18283.13;;;9.47;100.00
24746;BME280;12845;52.042;6.838;2023-04-27T08:39:28;-18285.75;;;9.57;100.00
24746;BME280;12845;52.042;6.838;2023-04-27T08:41:53;-18286.03;;;9.58;90.26
24746;BME280;12845;52.042;6.838;2023-04-27T08:44:19;-18287.69;;;9.64;94.67
24746;BME280;12845;52.042;6.838;2023-04-27T08:46:44;-18285.06;;;9.55;95.19
24746;BME280;12845;52.042;6.838;2023-04-27T08:49:10;-18288.78;;;9.68;100.00
24746;BME280;12845;52.042;6.838;2023-04-27T08:51:36;-18292.75;;;9.83;97.05
24746;BME280;12845;52.042;6.838;2023-04-27T08:54:01;-18294.28;;;9.89;95.53
24746;BME280;12845;52.042;6.838;2023-04-27T08:56:28;-18297.44;;;10.01;94.38
24746;BME280;12845;52.042;6.838;2023-04-27T08:58:54;-18296.47;;;9.97;86.23
24746;BME280;12845;52.042;6.838;2023-04-27T09:01:21;-18299.22;;;10.07;92.45
24746;BME280;12845;52.042;6.838;2023-04-27T09:03:48;-18302.94;;;10.21;95.30
24746;BME280;12845;52.042;6.838;2023-04-27T09:06:14;-18301.41;;;10.15;88.06
24746;BME280;12845;52.042;6.838;2023-04-27T09:11:05;-18302.53;;;10.20;95.62
24746;BME280;12845;52.042;6.838;2023-04-27T09:13:35;-18308.72;;;10.43;96.34
24746;BME280;12845;52.042;6.838;2023-04-27T09:16:00;-18308.84;;;10.43;93.25
24746;BME280;12845;52.042;6.838;2023-04-27T09:18:26;-18304.44;;;10.27;83.85
24746;BME280;12845;52.042;6.838;2023-04-27T09:20:52;-18301.16;;;10.14;73.86
24746;BME280;12845;52.042;6.838;2023-04-27T09:23:30;-18295.66;;;9.94;79.64
24746;BME280;12845;52.042;6.838;2023-04-27T09:25:58;-18306.09;;;10.33;95.21
24746;BME280;12845;52.042;6.838;2023-04-27T09:28:24;-18313.53;;;10.60;99.02
24746;BME280;12845;52.042;6.838;2023-04-27T09:30:56;-18317.09;;;10.74;92.95
24746;BME280;12845;52.042;6.838;2023-04-27T09:33:32;-18320.94;;;10.88;89.30
24746;BME280;12845;52.042;6.838;2023-04-27T09:36:02;-18325.06;;;11.03;93.72
24746;BME280;12845;52.042;6.838;2023-04-27T09:38:28;-18329.59;;;11.20;85.94
24746;BME280;12845;52.042;6.838;2023-04-27T09:40:54;-18325.88;;;11.06;87.91
24746;BME280;12845;52.042;6.838;2023-04-27T09:43:21;-18329.47;;;11.20;86.28
24746;BME280;12845;52.042;6.838;2023-04-27T09:45:48;-18329.72;;;11.21;85.58
24746;BME280;12845;52.042;6.838;2023-04-27T09:48:14;-18328.34;;;11.16;72.50
24746;BME280;12845;52.042;6.838;2023-04-27T09:50:41;-18324.50;;;11.01;76.23
24746;BME280;12845;52.042;6.838;2023-04-27T09:53:10;-18322.59;;;10.94;71.89
24746;BME280;12845;52.042;6.838;2023-04-27T10:07:08;-18348.81;;;11.92;74.51
24746;BME280;12845;52.042;6.838;2023-04-27T10:09:46;-18339.19;;;11.56;69.44
24746;BME280;12845;52.042;6.838;2023-04-27T10:14:56;-18339.06;;;11.56;82.97
24746;BME280;12845;52.042;6.838;2023-04-27T10:17:29;-18349.50;;;11.94;80.06
24746;BME280;12845;52.042;6.838;2023-04-27T10:19:59;-18352.09;;;12.04;75.72
24746;BME280;12845;52.042;6.838;2023-04-27T10:22:42;-18352.53;;;12.06;75.02
24746;BME280;12845;52.042;6.838;2023-04-27T10:25:18;-18353.34;;;12.09;70.21
24746;BME280;12845;52.042;6.838;2023-04-27T10:27:49;-18350.31;;;11.98;76.72
24746;BME280;12845;52.042;6.838;2023-04-27T10:30:17;-18354.31;;;12.12;69.95
24746;BME280;12845;52.042;6.838;2023-04-27T10:32:54;-18355.00;;;12.15;76.12
24746;BME280;12845;52.042;6.838;2023-04-27T10:35:21;-18361.03;;;12.37;73.48
24746;BME280;12845;52.042;6.838;2023-04-27T10:37:47;-18358.69;;;12.29;70.01
24746;BME280;12845;52.042;6.838;2023-04-27T10:40:17;-18356.50;;;12.21;63.94
24746;BME280;12845;52.042;6.838;2023-04-27T10:42:46;-18352.09;;;12.04;63.89
24746;BME280;12845;52.042;6.838;2023-04-27T10:45:13;-18350.31;;;11.98;69.77
24746;BME280;12845;52.042;6.838;2023-04-27T10:47:43;-18354.16;;;12.12;75.46
24746;BME280;12845;52.042;6.838;2023-04-27T10:50:11;-18362.94;;;12.45;75.67
24746;BME280;12845;52.042;6.838;2023-04-27T10:52:44;-18367.34;;;12.61;64.89
24746;BME280;12845;52.042;6.838;2023-04-27T10:55:14;-18366.66;;;12.58;59.14
24746;BME280;12845;52.042;6.838;2023-04-27T10:57:50;-18373.38;;;12.83;69.68
24746;BME280;12845;52.042;6.838;2023-04-27T11:00:33;-18370.22;;;12.72;66.84
24746;BME280;12845;52.042;6.838;2023-04-27T11:03:20;-18360.63;;;12.36;56.29
24746;BME280;12845;52.042;6.838;2023-04-27T11:05:47;-18354.16;;;12.12;56.80
24746;BME280;12845;52.042;6.838;2023-04-27T11:08:15;-18357.88;;;12.26;60.49
24746;BME280;12845;52.042;6.838;2023-04-27T11:10:48;-18359.78;;;12.33;62.10
24746;BME280;12845;52.042;6.838;2023-04-27T11:13:17;-18369.25;;;12.68;65.58
24746;BME280;12845;52.042;6.838;2023-04-27T11:15:52;-18375.97;;;12.93;65.32
24746;BME280;12845;52.042;6.838;2023-04-27T11:18:26;-18376.94;;;12.97;63.17
24746;BME280;12845;52.042;6.838;2023-04-27T11:21:05;-18376.09;;;12.94;56.02
24746;BME280;12845;52.042;6.838;2023-04-27T11:23:34;-18375.97;;;12.93;54.29
24746;BME280;12845;52.042;6.838;2023-04-27T11:26:20;-18376.78;;;12.96;58.24
24746;BME280;12845;52.042;6.838;2023-04-27T11:29:07;-18375.16;;;12.90;57.88
24746;BME280;12845;52.042;6.838;2023-04-27T11:31:39;-18376.09;;;12.94;58.14
24746;BME280;12845;52.042;6.838;2023-04-27T11:34:06;-18382.81;;;13.19;61.27
24746;BME280;12845;52.042;6.838;2023-04-27T11:36:31;-18382.81;;;13.19;55.62
24746;BME280;12845;52.042;6.838;2023-04-27T11:38:57;-18382.81;;;13.19;67.26
24746;BME280;12845;52.042;6.838;2023-04-27T11:41:32;-18388.44;;;13.40;62.18
24746;BME280;12845;52.042;6.838;2023-04-27T11:44:05;-18379.00;;;13.04;53.09
24746;BME280;12845;52.042;6.838;2023-04-27T11:46:32;-18385.97;;;13.30;61.54
24746;BME280;12845;52.042;6.838;2023-04-27T11:49:02;-18391.31;;;13.50;55.34
24746;BME280;12845;52.042;6.838;2023-04-27T11:51:29;-18401.59;;;13.89;56.90
24746;BME280;12845;52.042;6.838;2023-04-27T11:54:01;-18389.41;;;13.43;52.75
24746;BME280;12845;52.042;6.838;2023-04-27T11:56:36;-18387.91;;;13.38;62.36
24746;BME280;12845;52.042;6.838;2023-04-27T11:59:02;-18401.06;;;13.87;59.01
24746;BME280;12845;52.042;6.838;2023-04-27T12:01:30;-18403.38;;;13.95;60.75
24746;BME280;12845;52.042;6.838;2023-04-27T12:03:55;-18404.63;;;14.00;62.83
24746;BME280;12845;52.042;6.838;2023-04-27T12:06:25;-18397.22;;;13.72;52.05
24746;BME280;12845;52.042;6.838;2023-04-27T12:08:51;-18392.41;;;13.54;54.81
24746;BME280;12845;52.042;6.838;2023-04-27T12:11:17;-18401.75;;;13.89;56.76
24746;BME280;12845;52.042;6.838;2023-04-27T12:13:43;-18403.25;;;13.95;55.82
24746;BME280;12845;52.042;6.838;2023-04-27T12:16:08;-18412.28;;;14.29;66.76
24746;BME280;12845;52.042;6.838;2023-04-27T12:18:34;-18422.97;;;14.69;53.97
24746;BME280;12845;52.042;6.838;2023-04-27T12:20:59;-18423.94;;;14.72;54.11
24746;BME280;12845;52.042;6.838;2023-04-27T12:23:24;-18424.88;;;14.76;52.31
24746;BME280;12845;52.042;6.838;2023-04-27T12:25:50;-18413.38;;;14.33;53.83
24746;BME280;12845;52.042;6.838;2023-04-27T12:28:15;-18408.59;;;14.15;53.83
24746;BME280;12845;52.042;6.838;2023-04-27T12:30:43;-18408.72;;;14.15;53.59
24746;BME280;12845;52.042;6.838;2023-04-27T12:33:09;-18410.63;;;14.22;55.13
24746;BME280;12845;52.042;6.838;2023-04-27T12:35:35;-18405.84;;;14.05;55.29
24746;BME280;12845;52.042;6.838;2023-04-27T12:38:01;-18407.63;;;14.11;57.66
24746;BME280;12845;52.042;6.838;2023-04-27T12:40:28;-18416.81;;;14.45;53.29
24746;BME280;12845;52.042;6.838;2023-04-27T12:42:53;-18423.66;;;14.71;50.49
24746;BME280;12845;52.042;6.838;2023-04-27T12:45:19;-18432.00;;;15.02;54.24
24746;BME280;12845;52.042;6.838;2023-04-27T12:47:44;-18435.84;;;15.17;54.84
24746;BME280;12845;52.042;6.838;2023-04-27T12:50:10;-18435.69;;;15.16;54.79
24746;BME280;12845;52.042;6.838;2023-04-27T12:52:35;-18442.66;;;15.42;48.81
24746;BME280;12845;52.042;6.838;2023-04-27T12:55:00;-18445.13;;;15.51;49.99
24746;BME280;12845;52.042;6.838;2023-04-27T12:57:26;-18449.78;;;15.69;48.27
24746;BME280;12845;52.042;6.838;2023-04-27T12:59:52;-18438.28;;;15.26;46.72
24746;BME280;12845;52.042;6.838;2023-04-27T13:02:17;-18437.47;;;15.23;52.16
24746;BME280;12845;52.042;6.838;2023-04-27T13:04:43;-18444.31;;;15.48;57.69